Time;durP1;ratioP1;P1;durP2;ratioP2;P2;SDS_P1;SDS_P2;PMS_P1;PMS_P2;Temp;Humidity;BMP_temperature;BMP_pressure;BME280_temperature;BME280_humidity;BME280_pressure;Samples;Min_cycle;Max_cycle;Signal;HPM_P1;HPM_P2
2022/05/27 00:01:07;;;;;;;1.17;0.80;;;14.40;99.90;;;;;;4994589;28;20080;-75
2022/05/27 00:03:33;;;;;;;3.70;1.30;;;14.40;99.90;;;;;;4997860;28;20097;-76
2022/05/27 00:05:59;;;;;;;1.95;1.00;;;14.40;99.90;;;;;;4995639;28;20019;-75
2022/05/27 00:08:25;;;;;;;1.38;1.00;;;14.30;99.90;;;;;;4977861;28;20035;-71
2022/05/27 00:10:51;;;;;;;1.20;0.95;;;14.30;99.90;;;;;;4994399;28;20384;-71
2022/05/27 00:13:19;;;;;;;3.47;1.15;;;14.20;99.90;;;;;;4991629;28;20030;-71
2022/05/27 00:15:44;;;;;;;3.97;0.85;;;14.20;99.90;;;;;;4992476;28;20029;-71
2022/05/27 00:18:10;;;;;;;3.08;1.17;;;14.10;99.90;;;;;;4973128;28;20030;-72
2022/05/27 00:20:37;;;;;;;3.10;1.45;;;14.20;99.90;;;;;;4993696;28;20025;-71
2022/05/27 00:23:03;;;;;;;1.63;0.88;;;14.10;99.90;;;;;;4975819;28;20432;-70
2022/05/27 00:25:29;;;;;;;3.22;1.40;;;14.10;99.90;;;;;;4990723;28;20022;-71
2022/05/27 00:27:55;;;;;;;1.67;1.02;;;14.10;99.90;;;;;;4974473;28;20117;-70
2022/05/27 00:30:21;;;;;;;2.33;1.08;;;14.10;99.90;;;;;;4992063;28;20025;-72
2022/05/27 00:32:47;;;;;;;1.83;1.33;;;14.10;99.90;;;;;;4993367;28;20081;-71
2022/05/27 00:35:13;;;;;;;3.97;0.77;;;14.00;99.90;;;;;;4992654;28;20080;-72
2022/05/27 00:37:38;;;;;;;2.40;1.15;;;14.10;99.90;;;;;;4972381;28;20078;-71
2022/05/27 00:40:05;;;;;;;2.00;0.95;;;14.00;99.90;;;;;;4989666;28;20018;-72
2022/05/27 00:42:31;;;;;;;1.83;0.98;;;14.00;99.90;;;;;;4975269;28;20026;-71
2022/05/27 00:44:57;;;;;;;2.45;1.13;;;14.00;99.90;;;;;;4992303;28;20026;-72
2022/05/27 00:47:25;;;;;;;1.52;1.05;;;14.00;99.90;;;;;;4990021;28;20552;-71
2022/05/27 00:50:01;;;;;;;3.15;0.93;;;14.00;99.90;;;;;;4987870;28;20030;-71
2022/05/27 00:52:30;;;;;;;2.58;1.10;;;13.90;99.90;;;;;;4999051;28;20410;-72
2022/05/27 00:54:56;;;;;;;3.53;1.10;;;13.90;99.90;;;;;;4989384;28;20518;-72
2022/05/27 00:57:32;;;;;;;3.92;1.20;;;13.90;99.90;;;;;;4974890;28;20023;-71
2022/05/27 01:00:01;;;;;;;3.22;1.10;;;13.90;99.90;;;;;;4969863;28;20053;-71
2022/05/27 01:02:28;;;;;;;2.30;0.98;;;13.90;99.90;;;;;;4990338;28;20724;-71
2022/05/27 01:04:53;;;;;;;1.80;1.23;;;13.90;99.90;;;;;;4991446;28;20042;-71
2022/05/27 01:07:19;;;;;;;1.63;1.05;;;13.90;99.90;;;;;;4990102;28;20057;-72
2022/05/27 01:09:48;;;;;;;3.00;1.25;;;13.90;99.90;;;;;;4987143;28;20117;-72
2022/05/27 01:12:41;;;;;;;2.20;1.17;;;13.80;99.90;;;;;;4990469;28;20037;-72
2022/05/27 01:15:46;;;;;;;2.03;1.30;;;13.80;99.90;;;;;;4989296;28;20048;-72
2022/05/27 01:20:18;;;;;;;2.83;1.67;;;13.80;99.90;;;;;;4931928;28;20057;-71
2022/05/27 01:21:47;;;;;;;1.83;0.98;;;13.70;99.90;;;;;;4993503;28;20584;-72
2022/05/27 01:24:40;;;;;;;1.58;1.15;;;13.70;99.90;;;;;;4985908;28;20084;-71
2022/05/27 01:27:34;;;;;;;2.10;1.40;;;13.70;99.90;;;;;;4984055;28;20022;-71
2022/05/27 01:30:18;;;;;;;2.10;1.13;;;13.60;99.90;;;;;;4971493;28;20077;-72
2022/05/27 01:33:22;;;;;;;2.15;1.20;;;13.60;99.90;;;;;;4986842;28;20023;-72
2022/05/27 01:35:51;;;;;;;1.48;1.10;;;13.60;99.90;;;;;;4968228;28;20038;-72
2022/05/27 01:38:40;;;;;;;2.90;1.50;;;13.60;99.90;;;;;;4985706;28;20033;-71
2022/05/27 01:41:31;;;;;;;2.83;1.13;;;13.50;99.90;;;;;;4966086;28;20034;-72
2022/05/27 01:44:24;;;;;;;1.35;1.17;;;13.50;99.90;;;;;;4984300;28;20058;-72
2022/05/27 01:46:50;;;;;;;2.75;1.38;;;13.50;99.90;;;;;;4986015;28;20037;-72
2022/05/27 01:49:31;;;;;;;2.00;1.13;;;13.50;99.90;;;;;;4973173;28;20030;-72
2022/05/27 01:52:55;;;;;;;3.47;1.23;;;13.50;99.90;;;;;;4985350;28;20035;-71
2022/05/27 01:55:28;;;;;;;2.72;1.23;;;13.50;99.90;;;;;;4949052;28;20084;-72
2022/05/27 01:58:10;;;;;;;1.40;1.02;;;13.50;99.90;;;;;;4980341;28;20038;-71
2022/05/27 02:00:38;;;;;;;3.10;1.17;;;13.50;99.90;;;;;;4985618;28;20665;-72
2022/05/27 02:03:13;;;;;;;2.53;1.00;;;13.40;99.90;;;;;;4990946;28;20478;-71
2022/05/27 02:05:48;;;;;;;2.65;1.15;;;13.40;99.90;;;;;;4970343;28;20394;-71
2022/05/27 02:08:21;;;;;;;3.05;1.10;;;13.40;99.90;;;;;;4969172;28;20546;-72
2022/05/27 02:11:04;;;;;;;2.33;1.45;;;13.30;99.90;;;;;;4988781;28;20069;-72
2022/05/27 02:13:35;;;;;;;3.63;1.10;;;13.30;99.90;;;;;;4974204;28;20021;-70
2022/05/27 02:16:03;;;;;;;2.38;1.00;;;13.30;99.90;;;;;;4973174;28;20033;-72
2022/05/27 02:18:41;;;;;;;2.28;1.10;;;13.30;99.90;;;;;;4986929;28;20114;-71
2022/05/27 02:21:26;;;;;;;2.13;1.10;;;13.30;99.90;;;;;;4988434;28;20106;-71
2022/05/27 02:24:00;;;;;;;4.15;1.13;;;13.30;99.90;;;;;;4970560;28;20511;-72
2022/05/27 02:26:31;;;;;;;4.53;1.70;;;13.30;99.90;;;;;;4987996;28;20046;-71
2022/05/27 02:29:01;;;;;;;4.80;1.33;;;13.30;99.90;;;;;;4987954;28;20553;-72
2022/05/27 02:31:31;;;;;;;2.85;1.27;;;13.30;99.90;;;;;;4987317;28;20097;-71
2022/05/27 02:36:56;;;;;;;2.90;1.38;;;13.20;99.90;;;;;;4986053;28;20045;-72
2022/05/27 02:39:22;;;;;;;2.28;1.15;;;13.20;99.90;;;;;;4987608;28;20149;-71
2022/05/27 02:41:57;;;;;;;2.10;1.00;;;13.20;99.90;;;;;;4984956;28;20105;-72
2022/05/27 02:44:49;;;;;;;5.05;1.50;;;13.10;99.90;;;;;;4972081;28;20042;-70
2022/05/27 02:47:18;;;;;;;3.53;1.27;;;13.10;99.90;;;;;;4970794;28;20044;-72
2022/05/27 02:50:06;;;;;;;1.75;1.27;;;13.10;99.90;;;;;;4976643;28;20026;-71
2022/05/27 02:52:37;;;;;;;4.75;1.42;;;13.10;99.90;;;;;;4973408;28;20026;-72
2022/05/27 02:55:23;;;;;;;3.88;1.30;;;13.10;99.90;;;;;;4987450;28;20109;-72
2022/05/27 02:57:52;;;;;;;2.45;1.35;;;13.10;99.90;;;;;;4985364;28;20030;-72
2022/05/27 03:00:22;;;;;;;1.70;1.17;;;13.10;99.90;;;;;;4984554;28;20073;-71
2022/05/27 03:02:49;;;;;;;3.38;1.55;;;13.00;99.90;;;;;;4986315;28;20030;-72
2022/05/27 03:05:18;;;;;;;2.22;1.10;;;13.00;99.90;;;;;;4971707;28;20053;-72
2022/05/27 03:08:02;;;;;;;2.85;1.20;;;13.00;99.90;;;;;;4990089;28;20037;-72
2022/05/27 03:10:33;;;;;;;;;;;13.00;99.90;;;;;;4985536;28;20026;-72
2022/05/27 03:13:25;;;;;;;4.57;1.20;;;13.00;99.90;;;;;;4993116;28;19914;-71
2022/05/27 03:16:15;;;;;;;2.47;1.10;;;13.00;99.90;;;;;;4985688;28;20504;-72
2022/05/27 03:19:07;;;;;;;1.98;1.17;;;12.90;99.90;;;;;;4989361;28;20034;-71
2022/05/27 03:22:08;;;;;;;1.75;1.02;;;12.90;99.90;;;;;;4968518;28;20026;-71
2022/05/27 03:24:52;;;;;;;2.20;1.25;;;12.90;99.90;;;;;;4986696;28;20047;-72
2022/05/27 03:27:27;;;;;;;1.30;1.15;;;12.90;99.90;;;;;;4988530;28;20035;-71
2022/05/27 03:30:20;;;;;;;3.15;1.30;;;12.90;99.90;;;;;;4990008;28;20054;-71
2022/05/27 03:33:27;;;;;;;1.75;0.93;;;12.90;99.90;;;;;;4992285;28;20138;-72
2022/05/27 03:36:03;;;;;;;2.50;1.40;;;12.90;99.90;;;;;;4988065;28;20129;-71
2022/05/27 03:38:37;;;;;;;2.28;1.20;;;12.90;99.90;;;;;;4973974;28;20104;-71
2022/05/27 03:41:21;;;;;;;2.25;1.20;;;12.80;99.90;;;;;;4992878;28;20026;-71
2022/05/27 03:43:47;;;;;;;4.85;1.33;;;12.80;99.90;;;;;;4990974;28;20027;-72
2022/05/27 03:46:17;;;;;;;1.63;1.00;;;12.80;99.90;;;;;;4990256;28;20034;-71
2022/05/27 03:48:42;;;;;;;2.35;0.88;;;12.90;99.90;;;;;;4989244;28;20507;-71
2022/05/27 03:51:19;;;;;;;2.65;1.20;;;12.90;99.90;;;;;;4993172;28;20030;-71
2022/05/27 03:54:03;;;;;;;4.10;1.45;;;12.90;99.90;;;;;;4994829;28;20394;-71
2022/05/27 03:56:39;;;;;;;;;;;12.90;99.90;;;;;;4971410;28;20049;-71
2022/05/27 03:59:07;;;;;;;1.63;1.10;;;12.90;99.90;;;;;;4992292;28;19910;-71
2022/05/27 04:01:34;;;;;;;5.20;1.75;;;12.90;99.90;;;;;;5002968;28;20479;-71
2022/05/27 04:04:02;;;;;;;6.18;1.60;;;12.90;99.90;;;;;;4988391;28;20053;-72
2022/05/27 04:06:28;;;;;;;4.70;1.67;;;12.90;99.90;;;;;;4993966;28;20086;-71
2022/05/27 04:08:57;;;;;;;2.25;1.27;;;12.90;99.90;;;;;;4990433;28;20419;-71
2022/05/27 04:11:23;;;;;;;2.60;1.45;;;12.90;99.90;;;;;;4993616;28;20029;-70
2022/05/27 04:13:49;;;;;;;3.92;1.30;;;12.90;99.90;;;;;;4974244;28;20042;-71
2022/05/27 04:16:15;;;;;;;2.60;1.35;;;12.90;99.90;;;;;;4992574;28;20368;-72
2022/05/27 04:18:41;;;;;;;2.85;1.73;;;13.00;99.90;;;;;;4986259;28;20090;-71
2022/05/27 04:21:06;;;;;;;4.40;2.08;;;13.00;99.90;;;;;;4974950;28;20579;-72
2022/05/27 04:23:32;;;;;;;3.67;2.13;;;13.00;99.90;;;;;;4991535;28;20022;-72
2022/05/27 04:25:57;;;;;;;5.65;2.08;;;13.00;99.90;;;;;;4972783;28;20395;-71
2022/05/27 04:28:23;;;;;;;3.15;1.95;;;13.10;99.90;;;;;;4988914;28;20026;-71
2022/05/27 04:30:49;;;;;;;2.90;2.00;;;13.00;99.90;;;;;;4989040;28;20030;-72
2022/05/27 04:33:15;;;;;;;2.05;1.70;;;13.10;99.90;;;;;;4984882;28;20038;-71
2022/05/27 04:35:41;;;;;;;3.28;1.92;;;13.10;99.90;;;;;;4990630;28;20058;-71
2022/05/27 04:38:08;;;;;;;2.75;2.03;;;13.10;99.90;;;;;;4976261;28;20483;-72
2022/05/27 04:40:35;;;;;;;4.47;2.67;;;13.20;99.90;;;;;;4986881;28;20045;-72
2022/05/27 04:43:02;;;;;;;7.38;2.40;;;13.40;99.90;;;;;;4988084;28;20121;-72
2022/05/27 04:45:28;;;;;;;5.20;2.33;;;13.60;99.90;;;;;;4987995;28;20026;-71
2022/05/27 04:47:54;;;;;;;4.38;1.88;;;13.70;99.90;;;;;;4969053;28;20735;-72
2022/05/27 04:50:20;;;;;;;3.22;2.08;;;13.80;99.90;;;;;;4990255;28;20026;-71
2022/05/27 04:52:46;;;;;;;4.78;1.80;;;13.90;99.90;;;;;;4992936;28;20038;-72
2022/05/27 04:55:14;;;;;;;3.95;1.80;;;13.90;99.90;;;;;;4969142;28;20077;-71
2022/05/27 04:57:44;;;;;;;3.90;1.67;;;13.90;99.90;;;;;;4984011;28;20130;-70
2022/05/27 05:00:37;;;;;;;3.17;1.67;;;14.00;99.90;;;;;;4983838;28;20040;-71
2022/05/27 05:03:03;;;;;;;4.00;1.77;;;14.00;99.90;;;;;;4965648;28;20537;-71
2022/05/27 05:05:31;;;;;;;2.92;1.60;;;14.10;99.90;;;;;;4986965;28;20108;-71
2022/05/27 05:08:00;;;;;;;6.28;1.80;;;14.10;99.90;;;;;;4989299;28;20134;-72
2022/05/27 05:10:26;;;;;;;4.93;1.98;;;14.20;99.90;;;;;;4990716;28;20026;-71
2022/05/27 05:12:53;;;;;;;5.30;1.58;;;14.20;99.90;;;;;;4989121;28;20048;-71
2022/05/27 05:15:20;;;;;;;4.57;1.83;;;14.40;99.90;;;;;;4992235;28;20021;-71
2022/05/27 05:17:46;;;;;;;4.13;1.58;;;14.50;99.90;;;;;;4990498;28;20037;-71
2022/05/27 05:20:15;;;;;;;3.63;1.50;;;14.60;99.90;;;;;;4989081;28;20030;-70
2022/05/27 05:22:41;;;;;;;3.67;1.45;;;14.70;99.90;;;;;;4987094;28;20049;-71
2022/05/27 05:25:08;;;;;;;3.83;1.67;;;14.90;99.90;;;;;;4992314;28;20113;-73
2022/05/27 05:27:34;;;;;;;4.30;1.70;;;14.90;99.90;;;;;;4988783;28;20038;-71
2022/05/27 05:30:01;;;;;;;3.50;1.60;;;15.00;99.90;;;;;;4995228;28;20022;-71
2022/05/27 05:32:27;;;;;;;2.80;1.50;;;15.20;99.90;;;;;;4987289;28;20034;-71
2022/05/27 05:34:54;;;;;;;5.00;2.00;;;15.20;99.90;;;;;;4988640;28;20065;-70
2022/05/27 05:37:19;;;;;;;4.18;1.30;;;15.30;99.90;;;;;;4990011;28;20034;-71
2022/05/27 05:39:46;;;;;;;4.28;1.65;;;15.30;99.90;;;;;;4984697;28;20368;-71
2022/05/27 05:42:12;;;;;;;3.58;1.30;;;15.40;99.90;;;;;;4992446;28;20029;-71
2022/05/27 05:44:38;;;;;;;4.38;1.73;;;15.50;99.90;;;;;;4990090;28;20045;-71
2022/05/27 05:47:06;;;;;;;2.30;1.30;;;15.60;99.90;;;;;;4983472;28;20030;-71
2022/05/27 05:49:32;;;;;;;3.85;1.25;;;15.80;99.90;;;;;;4989880;28;20033;-71
2022/05/27 05:51:59;;;;;;;4.13;1.40;;;16.00;99.90;;;;;;4974414;28;20042;-71
2022/05/27 05:54:27;;;;;;;4.35;1.55;;;16.10;99.90;;;;;;4985906;28;20455;-71
2022/05/27 05:56:53;;;;;;;1.88;1.17;;;16.30;99.90;;;;;;4971260;28;20038;-72
2022/05/27 05:59:20;;;;;;;5.38;1.38;;;16.40;99.90;;;;;;4986620;28;20073;-71
2022/05/27 06:01:46;;;;;;;3.53;1.30;;;16.40;99.90;;;;;;4982865;28;20022;-72
2022/05/27 06:04:12;;;;;;;2.55;1.30;;;16.50;99.90;;;;;;4970732;28;20026;-71
2022/05/27 06:06:39;;;;;;;2.85;1.00;;;16.60;99.90;;;;;;4967615;28;20022;-71
2022/05/27 06:09:05;;;;;;;2.25;1.42;;;16.60;99.90;;;;;;5006505;23;20125;-74
2022/05/27 06:11:31;;;;;;;5.07;1.35;;;16.60;99.90;;;;;;4984066;28;20026;-75
2022/05/27 06:13:56;;;;;;;3.35;1.33;;;16.60;99.90;;;;;;4993467;28;20029;-75
2022/05/27 06:16:22;;;;;;;3.95;1.42;;;16.50;99.90;;;;;;4970788;28;20054;-74
2022/05/27 06:18:49;;;;;;;2.30;1.38;;;16.50;99.90;;;;;;4992945;28;20944;-74
2022/05/27 06:21:15;;;;;;;3.97;1.10;;;16.50;99.90;;;;;;4991085;28;20025;-73
2022/05/27 06:23:41;;;;;;;3.47;1.23;;;16.50;99.90;;;;;;4969316;28;20018;-72
2022/05/27 06:26:12;;;;;;;3.83;1.25;;;16.60;99.90;;;;;;4981363;28;20027;-74
2022/05/27 06:34:25;;;;;;;3.42;1.40;;;16.60;99.90;;;;;;4987079;28;20065;-75
2022/05/27 06:37:00;;;;;;;3.00;1.50;;;16.60;99.90;;;;;;4987542;28;20022;-74
2022/05/27 06:39:27;;;;;;;3.45;1.50;;;16.60;99.90;;;;;;4989772;28;20486;-76
2022/05/27 06:41:53;;;;;;;1.75;1.17;;;16.70;99.90;;;;;;4983059;28;20573;-72
2022/05/27 06:44:20;;;;;;;2.40;1.60;;;16.70;99.90;;;;;;4972497;28;20031;-69
2022/05/27 06:46:46;;;;;;;3.75;1.90;;;16.80;99.90;;;;;;4986829;28;20018;-76
2022/05/27 06:49:12;;;;;;;2.40;1.55;;;17.00;99.90;;;;;;4974436;28;20058;-71
2022/05/27 06:51:39;;;;;;;3.35;1.27;;;17.10;99.90;;;;;;4990303;28;20030;-71
2022/05/27 06:54:06;;;;;;;6.22;1.50;;;17.10;99.90;;;;;;4991788;28;20788;-69
2022/05/27 06:56:36;;;;;;;2.75;1.25;;;17.30;99.90;;;;;;4993405;28;20066;-69
2022/05/27 06:59:03;;;;;;;2.63;1.10;;;17.40;99.90;;;;;;4989306;28;20502;-74
2022/05/27 07:01:29;;;;;;;2.03;1.10;;;17.40;99.90;;;;;;4991308;28;20031;-74
2022/05/27 07:03:55;;;;;;;1.80;1.30;;;17.50;99.90;;;;;;4993054;28;20035;-74
2022/05/27 07:06:23;;;;;;;3.25;2.00;;;17.60;99.90;;;;;;4996313;28;20117;-74
2022/05/27 07:08:49;;;;;;;3.55;1.83;;;17.60;99.90;;;;;;4995880;28;20077;-74
2022/05/27 07:11:15;;;;;;;2.08;1.20;;;17.60;99.90;;;;;;4990638;28;20061;-74
2022/05/27 07:13:41;;;;;;;3.25;1.30;;;17.60;99.90;;;;;;4993508;28;20034;-70
2022/05/27 07:16:07;;;;;;;2.65;1.08;;;17.70;99.90;;;;;;4993484;28;20478;-69
2022/05/27 07:18:32;;;;;;;26.30;3.80;;;17.90;99.90;;;;;;4994268;28;20026;-76
2022/05/27 07:21:03;;;;;;;11.02;2.03;;;18.10;99.90;;;;;;4992624;28;20054;-74
2022/05/27 07:23:29;;;;;;;5.15;1.63;;;18.30;99.90;;;;;;4996737;28;20449;-74
2022/05/27 07:25:55;;;;;;;2.53;1.20;;;18.40;99.90;;;;;;4995276;28;20106;-74
2022/05/27 07:28:21;;;;;;;2.10;1.30;;;18.40;99.80;;;;;;4975228;28;20039;-73
2022/05/27 07:30:46;;;;;;;2.45;1.30;;;18.40;99.70;;;;;;4984040;28;20033;-73
2022/05/27 07:33:12;;;;;;;3.42;1.58;;;18.40;99.80;;;;;;4987794;28;20431;-73
2022/05/27 07:35:38;;;;;;;2.60;1.42;;;18.40;99.70;;;;;;4994469;28;20034;-73
2022/05/27 07:38:03;;;;;;;2.55;1.15;;;18.30;99.70;;;;;;4992294;28;20109;-73
2022/05/27 07:40:29;;;;;;;1.75;1.23;;;18.30;99.80;;;;;;4986090;28;20042;-74
2022/05/27 07:42:55;;;;;;;2.22;1.23;;;18.20;99.80;;;;;;4977041;28;20110;-73
2022/05/27 07:45:27;;;;;;;4.55;1.45;;;18.20;99.90;;;;;;4990554;28;20045;-73
2022/05/27 07:47:57;;;;;;;3.42;1.23;;;18.10;99.90;;;;;;4972336;28;20061;-74
2022/05/27 07:50:23;;;;;;;2.95;1.00;;;18.00;99.90;;;;;;4971463;28;20026;-73
2022/05/27 07:52:50;;;;;;;1.67;0.80;;;17.90;99.90;;;;;;4989766;28;20038;-73
2022/05/27 07:55:16;;;;;;;2.53;1.00;;;17.90;99.90;;;;;;4992133;28;20561;-73
2022/05/27 07:57:44;;;;;;;2.90;1.63;;;17.90;99.90;;;;;;4990916;28;20026;-73
2022/05/27 08:00:15;;;;;;;2.38;1.25;;;17.80;99.90;;;;;;4990992;28;20022;-73
2022/05/27 08:02:41;;;;;;;2.90;1.23;;;17.90;99.90;;;;;;4985310;28;20018;-73
2022/05/27 08:05:18;;;;;;;2.00;1.27;;;17.90;99.90;;;;;;4972148;28;20035;-73
2022/05/27 08:07:44;;;;;;;2.50;1.33;;;17.80;99.90;;;;;;4972047;28;20553;-72
2022/05/27 08:10:11;;;;;;;4.85;1.23;;;17.80;99.90;;;;;;4987412;28;20022;-73
2022/05/27 08:12:37;;;;;;;1.52;0.93;;;17.80;99.90;;;;;;4990026;28;20474;-72
2022/05/27 08:15:04;;;;;;;3.83;1.23;;;17.80;99.90;;;;;;4984402;28;20038;-72
2022/05/27 08:17:30;;;;;;;4.15;1.80;;;17.90;99.90;;;;;;4985483;28;20061;-73
2022/05/27 08:19:56;;;;;;;5.97;1.52;;;17.80;99.90;;;;;;4972426;28;20034;-72
2022/05/27 08:22:21;;;;;;;3.70;1.35;;;17.80;99.90;;;;;;4992164;28;20018;-72
2022/05/27 08:24:47;;;;;;;10.88;1.40;;;17.80;99.90;;;;;;4989616;28;20030;-72
2022/05/27 08:27:13;;;;;;;4.25;1.80;;;17.80;99.90;;;;;;4985441;28;20027;-72
2022/05/27 08:29:39;;;;;;;2.10;1.20;;;17.80;99.90;;;;;;4985797;28;20030;-72
2022/05/27 08:32:05;;;;;;;3.15;1.65;;;17.90;99.90;;;;;;4973729;28;20030;-72
2022/05/27 08:40:01;;;;;;;2.08;1.20;;;18.00;99.90;;;;;;4987183;28;20034;-72
2022/05/27 08:42:45;;;;;;;3.33;1.80;;;17.90;99.90;;;;;;4969999;28;20399;-74
2022/05/27 08:45:22;;;;;;;;;;;17.90;99.90;;;;;;4989511;28;20033;-72
2022/05/27 08:47:56;;;;;;;2.75;1.38;;;18.00;99.90;;;;;;4990288;28;19922;-72
2022/05/27 08:50:45;;;;;;;3.53;1.30;;;18.00;99.90;;;;;;5000412;28;20026;-74
2022/05/27 08:53:22;;;;;;;6.18;1.48;;;18.00;99.90;;;;;;4989342;28;20038;-73
2022/05/27 08:59:47;;;;;;;4.00;1.48;;;18.10;99.90;;;;;;4987698;28;20590;-74
2022/05/27 09:01:42;;;;;;;2.83;1.45;;;18.20;99.90;;;;;;4976119;28;20034;-74
2022/05/27 09:04:24;;;;;;;5.03;1.58;;;18.30;99.90;;;;;;4987089;28;20552;-74
2022/05/27 09:07:00;;;;;;;5.20;1.63;;;18.40;99.90;;;;;;4985360;28;20516;-74
2022/05/27 09:09:29;;;;;;;4.53;1.75;;;18.50;99.70;;;;;;4989894;28;20038;-72
2022/05/27 09:12:09;;;;;;;3.50;1.20;;;18.60;99.50;;;;;;4991512;28;20042;-73
2022/05/27 09:14:36;;;;;;;3.15;1.60;;;18.60;99.50;;;;;;4975537;28;20528;-74
2022/05/27 09:17:10;;;;;;;2.53;1.20;;;18.50;99.20;;;;;;4987755;28;20022;-74
2022/05/27 09:19:54;;;;;;;;;;;18.50;99.20;;;;;;4986665;28;20026;-75
2022/05/27 09:22:41;;;;;;;1.92;1.42;;;18.40;99.20;;;;;;4972653;28;20412;-74
2022/05/27 09:25:48;;;;;;;4.07;1.60;;;18.40;99.20;;;;;;4991058;28;20343;-74
2022/05/27 09:28:49;;;;;;;5.70;1.45;;;18.40;99.20;;;;;;4989818;28;20030;-74
2022/05/27 09:31:25;;;;;;;2.53;1.55;;;18.50;99.20;;;;;;4979069;28;20487;-73
2022/05/27 09:33:53;;;;;;;3.88;1.50;;;18.70;99.00;;;;;;4989726;28;20030;-73
2022/05/27 09:36:28;;;;;;;3.17;1.50;;;18.80;98.80;;;;;;4974429;28;20039;-73
2022/05/27 09:39:00;;;;;;;2.50;1.30;;;18.90;98.40;;;;;;4991827;28;20034;-75
2022/05/27 09:41:48;;;;;;;2.95;1.48;;;19.10;98.20;;;;;;4987509;28;20038;-74
2022/05/27 09:44:13;;;;;;;4.28;1.58;;;19.20;97.90;;;;;;4987592;28;20029;-74
2022/05/27 09:46:39;;;;;;;1.60;1.20;;;19.20;97.70;;;;;;4990954;28;20398;-74
2022/05/27 09:49:05;;;;;;;3.08;1.63;;;19.20;97.40;;;;;;4986810;28;20486;-73
2022/05/27 09:51:32;;;;;;;4.05;1.67;;;19.40;97.10;;;;;;4985654;28;20437;-73
2022/05/27 09:54:30;;;;;;;3.15;1.20;;;19.50;96.90;;;;;;4990147;28;20076;-74
2022/05/27 09:57:22;;;;;;;3.88;1.30;;;19.50;96.80;;;;;;5002729;28;20130;-73
2022/05/27 09:59:56;;;;;;;3.00;1.10;;;19.60;96.80;;;;;;4988362;28;20066;-73
2022/05/27 10:02:21;;;;;;;3.75;1.50;;;19.60;96.50;;;;;;4989584;28;20015;-75
2022/05/27 10:04:51;;;;;;;4.45;1.58;;;19.70;96.50;;;;;;4985991;28;20030;-73
2022/05/27 10:07:34;;;;;;;5.65;1.20;;;19.60;96.40;;;;;;4985021;28;20030;-74
2022/05/27 10:10:24;;;;;;;4.85;1.55;;;19.70;96.60;;;;;;4986764;28;20502;-73
2022/05/27 10:12:51;;;;;;;3.67;1.42;;;19.70;96.30;;;;;;4967928;28;20145;-73
2022/05/27 10:15:38;;;;;;;4.88;1.48;;;19.70;96.20;;;;;;4988170;28;20080;-75
2022/05/27 10:18:22;;;;;;;3.70;1.20;;;19.80;96.10;;;;;;5002098;28;20034;-74
2022/05/27 10:20:51;;;;;;;3.72;1.63;;;19.80;96.00;;;;;;4965915;28;20081;-75
2022/05/27 10:23:29;;;;;;;1.77;1.02;;;19.80;95.80;;;;;;4988792;28;20050;-74
2022/05/27 10:25:55;;;;;;;4.65;1.73;;;19.90;95.70;;;;;;4979780;28;20031;-74
2022/05/27 10:28:29;;;;;;;1.63;1.20;;;19.90;95.30;;;;;;4988842;28;20034;-75
2022/05/27 10:31:02;;;;;;;4.07;1.20;;;20.10;94.90;;;;;;4987265;28;20057;-73
2022/05/27 10:33:47;;;;;;;2.65;1.52;;;20.20;94.90;;;;;;4986444;28;20480;-74
2022/05/27 10:36:35;;;;;;;1.60;1.05;;;20.40;95.30;;;;;;4986488;28;20061;-73
2022/05/27 10:39:05;;;;;;;1.92;1.25;;;20.60;94.10;;;;;;4986310;28;20039;-73
2022/05/27 10:41:48;;;;;;;3.15;1.13;;;20.70;94.10;;;;;;4993784;28;20425;-74
2022/05/27 10:44:50;;;;;;;3.88;1.50;;;20.70;93.60;;;;;;4986613;28;20034;-73
2022/05/27 10:47:44;;;;;;;3.72;1.45;;;20.80;93.60;;;;;;4993902;28;20026;-73
2022/05/27 10:50:22;;;;;;;3.42;1.50;;;20.80;93.40;;;;;;4985344;28;20065;-74
2022/05/27 10:53:22;;;;;;;1.90;1.20;;;20.80;93.70;;;;;;5000699;28;20038;-74
2022/05/27 10:56:09;;;;;;;1.85;1.10;;;20.90;93.40;;;;;;4949924;28;20137;-74
2022/05/27 11:02:12;;;;;;;2.05;1.10;;;20.90;92.60;;;;;;4987705;28;20097;-74
2022/05/27 11:05:12;;;;;;;2.92;0.90;;;20.80;91.70;;;;;;4994584;28;20793;-74
2022/05/27 11:07:46;;;;;;;3.10;1.05;;;20.80;91.80;;;;;;4988360;28;20030;-73
2022/05/27 11:10:24;;;;;;;1.33;1.23;;;20.80;91.90;;;;;;4988129;28;20033;-74
2022/05/27 11:16:23;;;;;;;1.77;1.00;;;20.90;91.60;;;;;;4992265;28;20077;-73
2022/05/27 11:19:00;;;;;;;1.92;1.25;;;21.00;91.20;;;;;;4988539;28;20486;-73
2022/05/27 11:22:10;;;;;;;2.08;1.02;;;20.80;91.10;;;;;;4983567;28;20030;-74
2022/05/27 11:25:00;;;;;;;2.42;1.05;;;20.80;91.20;;;;;;4988377;28;20037;-74
2022/05/27 11:27:33;;;;;;;2.47;1.38;;;20.80;90.90;;;;;;4986615;28;20030;-76
2022/05/27 11:30:31;;;;;;;4.85;1.52;;;20.80;91.00;;;;;;4963063;28;20030;-73
2022/05/27 11:33:18;;;;;;;3.15;1.25;;;20.80;91.10;;;;;;4987992;28;20038;-73
2022/05/27 11:36:13;;;;;;;2.67;1.25;;;20.90;90.90;;;;;;4993100;28;20026;-73
2022/05/27 11:39:03;;;;;;;3.67;1.40;;;20.90;90.90;;;;;;4983616;28;20068;-73
2022/05/27 11:41:47;;;;;;;3.17;1.42;;;20.90;91.00;;;;;;4987344;28;20030;-73
2022/05/27 11:44:16;;;;;;;2.05;1.17;;;21.00;90.80;;;;;;4990021;28;20023;-73
2022/05/27 11:47:08;;;;;;;4.60;1.52;;;21.10;90.40;;;;;;4988995;28;20184;-74
2022/05/27 11:49:54;;;;;;;3.22;1.70;;;21.20;90.20;;;;;;4989238;28;20109;-73
2022/05/27 11:52:40;;;;;;;3.45;1.38;;;21.30;90.30;;;;;;4985177;28;20040;-74
2022/05/27 11:55:24;;;;;;;2.78;1.00;;;21.60;89.30;;;;;;4990462;28;20036;-73
2022/05/27 11:57:50;;;;;;;;;;;21.70;87.60;;;;;;4993229;28;20375;-73
2022/05/27 12:00:25;;;;;;;2.00;1.17;;;21.70;87.70;;;;;;4989762;28;19909;-72
2022/05/27 12:03:09;;;;;;;3.58;1.30;;;21.80;87.10;;;;;;4987440;28;20030;-72
2022/05/27 12:05:41;;;;;;;;;;;21.70;86.60;;;;;;4990711;28;20022;-73
2022/05/27 12:08:30;;;;;;;4.07;1.13;;;21.70;86.90;;;;;;4996650;23;20414;-83
2022/05/27 12:11:02;;;;;;;2.05;1.50;;;21.70;84.80;;;;;;5000765;28;20018;-82
2022/05/27 12:13:49;;;;;;;3.17;0.95;;;21.60;84.70;;;;;;4999683;28;20084;-81
2022/05/27 12:16:27;;;;;;;1.42;0.93;;;21.50;84.70;;;;;;5001735;28;20022;-82
2022/05/27 12:19:18;;;;;;;1.77;0.88;;;21.60;85.10;;;;;;4984810;28;20034;-80
2022/05/27 12:22:27;;;;;;;1.45;0.88;;;21.50;84.80;;;;;;4992329;28;20033;-82
2022/05/27 12:25:08;;;;;;;2.65;0.90;;;21.50;84.80;;;;;;4936294;28;20031;-83
2022/05/27 12:27:34;;;;;;;1.08;0.80;;;21.30;85.30;;;;;;4991262;28;20386;-83
2022/05/27 12:30:09;;;;;;;4.25;1.20;;;21.20;85.50;;;;;;4989212;28;20097;-83
2022/05/27 12:32:39;;;;;;;2.00;1.10;;;21.10;85.70;;;;;;4993198;28;20045;-82
2022/05/27 12:35:23;;;;;;;2.38;1.15;;;21.10;86.20;;;;;;4992161;28;20057;-81
2022/05/27 12:38:25;;;;;;;3.28;0.88;;;21.00;86.70;;;;;;4997730;28;20058;-81
2022/05/27 12:40:54;;;;;;;2.22;1.02;;;20.90;86.50;;;;;;4974679;28;20037;-83
2022/05/27 12:43:45;;;;;;;2.15;1.17;;;20.90;85.60;;;;;;4988626;28;20089;-81
2022/05/27 12:46:23;;;;;;;3.00;0.98;;;20.90;86.30;;;;;;4988848;28;20241;-83
2022/05/27 12:48:55;;;;;;;1.73;1.08;;;20.90;86.50;;;;;;4976406;28;20027;-83
2022/05/27 12:51:43;;;;;;;3.85;1.20;;;21.00;86.10;;;;;;4977660;28;20069;-83
2022/05/27 12:54:09;;;;;;;2.00;1.00;;;21.10;85.70;;;;;;4988538;28;20054;-84
2022/05/27 13:03:06;;;;;;;1.63;1.00;;;21.20;86.10;;;;;;4994341;28;20046;-85
2022/05/27 13:06:03;;;;;;;3.25;1.10;;;21.20;85.30;;;;;;4996837;28;20046;-82
2022/05/27 13:09:06;;;;;;;1.98;1.27;;;21.10;84.80;;;;;;4993947;28;20374;-83
2022/05/27 13:11:50;;;;;;;1.33;1.15;;;21.00;85.50;;;;;;4989560;28;20493;-84
2022/05/27 13:14:40;;;;;;;2.70;0.98;;;20.90;85.50;;;;;;4991868;28;20030;-84
2022/05/27 13:17:33;;;;;;;2.13;1.25;;;20.90;86.80;;;;;;4978422;28;20423;-84
2022/05/27 13:20:25;;;;;;;2.38;1.20;;;21.10;86.80;;;;;;4975867;28;20127;-83
2022/05/27 13:23:13;;;;;;;4.00;1.00;;;21.30;86.50;;;;;;4979391;28;20122;-83
2022/05/27 13:25:58;;;;;;;1.73;0.90;;;21.40;85.40;;;;;;4973477;28;20564;-78
2022/05/27 13:28:51;;;;;;;1.77;0.80;;;21.50;85.60;;;;;;4997646;28;20200;-78
2022/05/27 13:31:24;;;;;;;1.23;1.10;;;21.70;84.80;;;;;;4966861;28;20318;-78
2022/05/27 13:33:53;;;;;;;;;;;21.80;84.90;;;;;;4997311;28;20037;-76
2022/05/27 13:36:28;;;;;;;1.55;0.98;;;22.00;84.20;;;;;;4974490;28;19922;-75
2022/05/27 13:39:05;;;;;;;3.75;0.85;;;22.10;84.00;;;;;;4997148;28;20022;-78
2022/05/27 13:41:43;;;;;;;2.35;0.95;;;22.30;83.40;;;;;;4977117;28;20033;-75
2022/05/27 13:44:16;;;;;;;6.78;1.00;;;22.50;82.70;;;;;;4993205;28;20070;-75
2022/05/27 13:47:14;;;;;;;4.25;1.20;;;22.60;81.90;;;;;;4995864;28;20030;-76
2022/05/27 13:50:06;;;;;;;3.60;1.02;;;22.60;81.20;;;;;;4986755;28;20114;-76
2022/05/27 13:52:44;;;;;;;2.95;0.90;;;22.70;81.60;;;;;;4982643;28;20039;-79
2022/05/27 13:55:14;;;;;;;2.65;1.10;;;22.90;81.20;;;;;;4983354;28;20026;-78
2022/05/27 13:57:55;;;;;;;3.15;0.90;;;23.00;80.70;;;;;;4997156;28;20028;-77